Historyczne dane pomiarowe

Dodano dane terminowe – wersja testowa.

Dane z okresu 1951-2019

Wersja bazy: 1.34 [2019-03-16, lista zmian], aktualizacja planowana na 2019-04-15

Dane meteo z obszaru Polski uzyskane na podstawie danych udostępnionych przez Instytut Meteorologii i Gospodarki Wodnej – Państwowy Instytut Badawczy.

 

Wybierz Datę:    

       

TemperaturaWilgotnośćWiatrCiśnienieOpadyŚniegCzas trwania zjawisk
 Stacja t tx tn tng RH VA  wxwx mslp ppp RRR   cm mm wxwxwxwxwxwxwx
1961-08-14 13.9 19.0 8.3--- 3.0 1.3---- 0.0------------
1961-08-13 13.2 15.7 11.7--- 5.7 1.7---- 18.2------------
1961-08-12 18.5 24.8 15.1--- 6.7 2.3---- 30.4------------
1961-08-11 24.3 32.8 18.7--- 2.7 1.7---- 0.0------------
1961-08-10 24.7 30.0 18.7--- 4.0 0.7---- 0.0------------
1961-08-09 23.5 29.7 14.3--- 7.0 1.0---- 10.4------------
1961-08-08 18.7 22.8 16.2--- 7.0 2.0---- 0.0------------
1961-08-07 23.5 31.8 16.1--- 3.3 0.3---- 0.0------------
1961-08-06 24.7 31.6 15.3--- 0.0 1.0---- 0.0------------
1961-08-05 19.9 24.8 14.7--- 5.7 2.3---- 0.0------------
1961-08-04 17.5 21.2 9.7--- 4.3 1.0---- 0.0------------
1961-08-03 18.0 22.8 13.3--- 8.0 2.7---- 0.0------------
1961-08-02 19.8 26.9 10.1--- 1.7 1.3---- 0.0------------
1961-08-01 15.8 21.6 9.7--- 3.0 3.0---- 0.0------------
1961-07-31 13.3 15.3 9.2--- 8.0 2.3---- 12.7------------
1961-07-30 11.8 12.7 8.9--- 8.0 2.0---- 19.3------------
1961-07-29 13.8 20.8 10.7--- 8.0 2.0---- 13.4------------
1961-07-28 21.5 26.9 15.7--- 6.7 1.7---- 15.6------------
1961-07-27 21.9 26.6 12.8--- 5.3 1.3---- 0.0------------
1961-07-26 17.2 23.1 9.7--- 3.7 1.3---- 0.0------------
1961-07-25 13.6 16.0 10.2--- 8.0 0.7---- 0.0------------
1961-07-24 15.1 18.4 11.2--- 8.0 2.0---- 0.0------------
1961-07-23 16.9 21.1 11.0--- 7.3 1.7---- 0.0------------
1961-07-22 14.5 19.4 10.5--- 6.3 2.7---- 0.7------------
1961-07-21 16.0 19.3 9.3--- 6.7 3.0---- 0.4------------
1961-07-20 14.9 17.9 8.2--- 7.7 1.7---- 10.2------------
1961-07-19 15.9 21.1 10.0--- 6.0 2.7---- 2.2------------
1961-07-18 15.6 19.9 8.7--- 4.7 1.3---- 0.0------------
1961-07-17 15.7 21.8 12.7--- 4.7 7.0---- 11.8------------
1961-07-16 17.4 21.1 13.4--- 6.0 5.7---- 0.0------------
1961-07-15 20.3 27.2 13.5--- 5.7 2.3---- 7.2------------
1961-07-14 16.3 21.7 12.3--- 4.7 7.7---- 0.0------------
1961-07-13 21.4 30.1 12.4--- 3.7 6.7---- 8.6------------
1961-07-12 21.0 28.8 13.3--- 6.0 2.0---- 0.7------------
1961-07-11 16.8 21.7 8.7--- 5.0 2.0---- 0.0------------
1961-07-10 15.0 20.0 8.2--- 6.3 4.0---- 2.8------------
1961-07-09 15.0 22.7 8.0--- 7.0 2.7---- 1.7------------
1961-07-08 15.3 21.7 5.2--- 4.0 1.0---- 0.0------------
1961-07-07 13.3 18.2 9.4--- 5.3 1.7---- 0.0------------
1961-07-06 13.7 17.2 6.9--- 4.3 2.7---- 0.7------------
1961-07-05 14.9 20.7 12.3--- 6.0 3.7---- 0.0------------
1961-07-04 23.1 29.7 16.6--- 5.3 2.7---- 4.2------------
1961-07-03 24.5 30.8 11.3--- 0.0 1.0---- 0.0------------
1961-07-02 21.0 27.7 10.3--- 0.3 0.7---- 0.0------------
1961-07-01 19.8 26.7 10.6--- 2.3 1.3---- 0.0------------
1961-06-30 18.1 23.2 9.0--- 1.3 1.3---- 0.0------------
1961-06-29 16.0 21.2 7.9--- 4.3 2.0---- 0.0------------
1961-06-28 14.7 20.4 11.9--- 6.3 2.0---- 2.0------------
1961-06-27 23.0 32.8 12.9--- 3.7 1.3---- 8.1------------
1961-06-26 22.2 30.4 16.7--- 5.3 2.3---- 8.4------------
1961-06-25 22.8 29.2 12.4--- 1.0 1.7---- 0.0------------
1961-06-24 19.3 25.7 11.2--- 3.3 2.3---- 0.0------------
1961-06-23 18.6 22.9 15.0--- 4.0 2.0---- 0.0------------
1961-06-22 19.5 25.2 8.7--- 2.0 2.0---- 3.7------------
1961-06-21 17.8 23.7 4.8--- 1.3 1.0---- 0.0------------
1961-06-20 15.6 20.3 10.7--- 4.3 1.7---- 0.0------------
1961-06-19 21.1 28.2 15.2--- 4.3 1.3---- 0.0------------
1961-06-18 20.8 25.7 9.8--- 2.3 2.0---- 0.0------------
1961-06-17 16.8 22.7 6.5--- 3.0 1.3---- 0.0------------
1961-06-16 14.3 19.7 8.7--- 4.0 2.7---- 0.0------------
420.8 ms

 

Źródłem pochodzenia danych jest Instytut Meteorologii i Gospodarki Wodnej – Państwowy Instytut Badawczy. Dane Instytutu Meteorologii i Gospodarki Wodnej – Państwowego Instytutu Badawczego zostały przetworzone.

Dane źródłowe można odnaleźć na stronie https://dane.imgw.pl